Time;durP1;ratioP1;P1;durP2;ratioP2;P2;SDS_P1;SDS_P2;PMS_P1;PMS_P2;Temp;Humidity;BMP_temperature;BMP_pressure;BME280_temperature;BME280_humidity;BME280_pressure;Samples;Min_cycle;Max_cycle;Signal;HPM_P1;HPM_P2
2021/04/09 00:01:49;;;;;;;17.40;8.53;;;5.10;71.30;;;;;;5029627;28;20072;-74
2021/04/09 00:04:14;;;;;;;14.47;8.90;;;5.00;71.20;;;;;;5030802;28;20030;-74
2021/04/09 00:06:41;;;;;;;13.43;8.23;;;4.90;71.20;;;;;;5032398;28;20039;-74
2021/04/09 00:09:08;;;;;;;16.47;9.73;;;4.90;71.40;;;;;;5031215;28;20037;-75
2021/04/09 00:11:34;;;;;;;15.37;8.87;;;4.90;71.70;;;;;;5031662;28;20041;-74
2021/04/09 00:14:00;;;;;;;14.63;9.10;;;5.00;71.60;;;;;;5030413;28;20021;-75
2021/04/09 00:16:26;;;;;;;13.43;9.10;;;5.00;71.70;;;;;;5030268;28;20519;-75
2021/04/09 00:18:51;;;;;;;14.00;8.40;;;4.90;71.70;;;;;;5030995;28;20036;-74
2021/04/09 00:21:18;;;;;;;16.10;9.13;;;4.90;71.30;;;;;;5030134;28;20084;-74
2021/04/09 00:23:43;;;;;;;15.90;9.20;;;4.90;71.50;;;;;;5029496;28;20034;-75
2021/04/09 00:26:09;;;;;;;12.10;8.33;;;4.90;71.60;;;;;;5030346;28;20037;-74
2021/04/09 00:28:34;;;;;;;18.73;8.97;;;4.80;71.70;;;;;;5030074;28;20040;-75
2021/04/09 00:31:00;;;;;;;23.30;9.80;;;4.80;72.10;;;;;;5031131;28;20037;-75
2021/04/09 00:33:26;;;;;;;13.07;8.83;;;4.90;72.30;;;;;;5030009;28;20232;-75
2021/04/09 00:35:51;;;;;;;21.43;9.90;;;4.90;72.60;;;;;;5029343;28;20029;-74
2021/04/09 00:38:17;;;;;;;17.23;9.33;;;4.90;72.40;;;;;;5013407;28;20071;-74
2021/04/09 00:40:43;;;;;;;16.33;9.17;;;4.90;72.10;;;;;;5012789;28;20040;-76
2021/04/09 00:43:08;;;;;;;17.40;8.63;;;4.90;71.70;;;;;;5029834;28;20095;-74
2021/04/09 00:45:36;;;;;;;13.37;8.73;;;4.80;71.90;;;;;;5029764;28;20075;-74
2021/04/09 00:48:03;;;;;;;15.97;8.20;;;4.80;71.80;;;;;;5029083;28;20063;-74
2021/04/09 00:50:29;;;;;;;17.20;8.07;;;4.80;72.20;;;;;;5031036;28;20481;-74
2021/04/09 00:52:56;;;;;;;14.33;8.53;;;4.80;72.00;;;;;;5029074;28;20030;-74
2021/04/09 00:55:22;;;;;;;17.23;8.17;;;4.80;72.20;;;;;;5029956;28;20037;-74
2021/04/09 00:57:50;;;;;;;15.77;8.50;;;4.80;72.30;;;;;;5027792;28;20500;-74
2021/04/09 01:00:17;;;;;;;14.40;8.27;;;4.80;72.20;;;;;;5030529;28;20048;-74
2021/04/09 01:02:44;;;;;;;11.53;7.70;;;4.80;72.20;;;;;;5029802;28;20038;-74
2021/04/09 01:05:12;;;;;;;14.07;7.97;;;4.80;72.40;;;;;;5030239;28;20030;-74
2021/04/09 01:07:42;;;;;;;16.30;7.77;;;4.90;72.10;;;;;;5029868;28;20461;-74
2021/04/09 01:10:09;;;;;;;13.43;7.73;;;4.90;71.70;;;;;;5029470;28;20049;-74
2021/04/09 01:12:35;;;;;;;12.40;7.47;;;4.90;71.80;;;;;;5028867;28;20022;-74
2021/04/09 01:15:02;;;;;;;12.40;7.50;;;4.90;72.00;;;;;;5028991;28;20044;-74
2021/04/09 01:17:46;;;;;;;11.23;7.20;;;4.90;71.60;;;;;;5012626;28;20037;-74
2021/04/09 01:20:30;;;;;;;12.13;6.77;;;4.90;71.50;;;;;;5030316;28;20017;-74
2021/04/09 01:23:24;;;;;;;12.23;6.57;;;5.00;71.70;;;;;;5028141;28;20049;-73
2021/04/09 01:26:17;;;;;;;11.77;7.33;;;5.00;72.20;;;;;;5028346;28;20033;-73
2021/04/09 01:28:54;;;;;;;15.97;7.50;;;5.10;71.50;;;;;;5028761;28;20080;-75
2021/04/09 01:31:58;;;;;;;12.40;7.00;;;5.00;71.30;;;;;;5028997;28;20060;-76
2021/04/09 01:34:32;;;;;;;13.13;7.40;;;5.00;71.40;;;;;;5025056;28;20058;-76
2021/04/09 01:37:04;;;;;;;14.23;7.43;;;4.90;71.10;;;;;;5007084;28;20077;-76
2021/04/09 01:39:36;;;;;;;15.40;8.10;;;4.90;71.40;;;;;;5010863;28;20416;-73
2021/04/09 01:42:06;;;;;;;12.82;7.32;;;4.90;71.30;;;;;;5029138;28;20280;-75
2021/04/09 01:44:34;;;;;;;13.70;6.77;;;4.90;71.70;;;;;;5029946;28;20433;-76
2021/04/09 01:47:02;;;;;;;13.60;7.03;;;4.90;71.70;;;;;;5027572;28;20034;-76
2021/04/09 01:49:31;;;;;;;13.67;7.87;;;4.90;71.50;;;;;;5029262;28;20033;-76
2021/04/09 01:51:59;;;;;;;11.50;6.90;;;4.90;71.20;;;;;;5027622;28;20437;-74
2021/04/09 01:54:26;;;;;;;11.63;6.87;;;4.90;71.20;;;;;;5029572;28;20474;-75
2021/04/09 01:56:54;;;;;;;13.73;6.90;;;4.80;71.50;;;;;;5029308;28;20172;-75
2021/04/09 01:59:22;;;;;;;12.07;7.10;;;4.90;71.60;;;;;;5028563;28;20085;-75
2021/04/09 02:01:49;;;;;;;11.53;7.10;;;4.80;71.80;;;;;;5012470;28;20477;-76
2021/04/09 02:04:19;;;;;;;13.87;7.53;;;4.90;71.70;;;;;;5012565;28;20462;-75
2021/04/09 02:06:47;;;;;;;17.40;7.00;;;4.90;71.70;;;;;;5030203;28;20029;-75
2021/04/09 02:09:14;;;;;;;12.87;7.60;;;4.90;71.60;;;;;;5030027;28;20478;-74
2021/04/09 02:11:42;;;;;;;16.73;7.77;;;5.00;72.00;;;;;;5028749;28;20022;-75
2021/04/09 02:14:16;;;;;;;12.17;7.07;;;5.00;71.50;;;;;;5010910;28;20584;-75
2021/04/09 02:16:46;;;;;;;10.13;6.90;;;5.00;72.20;;;;;;5028641;28;20163;-75
2021/04/09 02:19:11;;;;;;;13.07;6.77;;;5.10;72.30;;;;;;5027516;28;20290;-75
2021/04/09 02:21:38;;;;;;;14.23;6.60;;;5.10;72.10;;;;;;5011720;28;20485;-75
2021/04/09 02:24:05;;;;;;;12.20;6.67;;;5.20;72.30;;;;;;5028715;28;20038;-75
2021/04/09 02:26:31;;;;;;;15.33;7.20;;;5.30;72.60;;;;;;5029343;28;20022;-75
2021/04/09 02:28:59;;;;;;;13.20;7.17;;;5.30;72.10;;;;;;5027895;28;20036;-75
2021/04/09 02:31:25;;;;;;;13.30;7.17;;;5.30;71.80;;;;;;5029719;28;20038;-75
2021/04/09 02:33:51;;;;;;;17.20;7.63;;;5.20;71.10;;;;;;5029483;28;20083;-76
2021/04/09 02:36:20;;;;;;;16.37;8.30;;;5.20;71.30;;;;;;5026864;28;20018;-75
2021/04/09 02:38:55;;;;;;;14.53;6.93;;;5.20;71.10;;;;;;5028427;28;20026;-75
2021/04/09 02:41:24;;;;;;;12.40;7.10;;;5.20;71.50;;;;;;5028383;28;20179;-75
2021/04/09 02:43:50;;;;;;;14.80;6.97;;;5.30;71.60;;;;;;5028731;28;20103;-75
2021/04/09 02:46:28;;;;;;;13.87;7.70;;;5.30;71.80;;;;;;5027436;28;20073;-75
2021/04/09 02:49:00;;;;;;;13.77;8.20;;;5.30;71.70;;;;;;5027890;28;20025;-74
2021/04/09 02:51:27;;;;;;;12.10;8.77;;;5.30;71.00;;;;;;5028878;28;20029;-73
2021/04/09 02:53:58;;;;;;;16.37;9.57;;;5.30;71.10;;;;;;5029415;28;20033;-74
2021/04/09 02:56:26;;;;;;;17.30;9.50;;;5.40;71.80;;;;;;5029592;28;20118;-73
2021/04/09 02:58:53;;;;;;;16.43;9.70;;;5.40;71.30;;;;;;5028354;28;20120;-73
2021/04/09 03:01:24;;;;;;;15.50;9.27;;;5.40;72.20;;;;;;5023837;28;20129;-73
2021/04/09 03:03:51;;;;;;;17.93;9.60;;;5.40;71.20;;;;;;5003457;28;20029;-74
2021/04/09 03:06:17;;;;;;;18.27;9.50;;;5.30;71.50;;;;;;5026756;28;20881;-73
2021/04/09 03:08:44;;;;;;;17.27;10.13;;;5.30;70.70;;;;;;5048098;28;20072;-74
2021/04/09 03:11:10;;;;;;;23.07;10.87;;;5.30;71.20;;;;;;5048603;28;20036;-74
2021/04/09 03:13:35;;;;;;;19.70;10.87;;;5.20;70.90;;;;;;5048176;28;20389;-74
2021/04/09 03:16:03;;;;;;;18.43;11.00;;;5.30;71.60;;;;;;5015635;28;20087;-73
2021/04/09 03:18:34;;;;;;;22.13;11.93;;;5.30;71.70;;;;;;5031466;28;20032;-74
2021/04/09 03:20:59;;;;;;;21.40;11.73;;;5.30;71.60;;;;;;5032214;28;20036;-75
2021/04/09 03:23:25;;;;;;;20.83;9.33;;;5.30;71.70;;;;;;5031460;28;20034;-73
2021/04/09 03:25:51;;;;;;;26.60;13.23;;;5.30;71.10;;;;;;5014800;28;20033;-74
2021/04/09 03:28:17;;;;;;;21.93;12.10;;;5.30;71.80;;;;;;5030426;28;20018;-74
2021/04/09 03:30:49;;;;;;;24.33;14.50;;;5.30;72.10;;;;;;5031217;28;20037;-74
2021/04/09 03:33:17;;;;;;;25.15;14.52;;;5.30;72.10;;;;;;5032555;28;20029;-74
2021/04/09 03:35:42;;;;;;;27.83;15.47;;;5.40;72.70;;;;;;5032503;28;20535;-74
2021/04/09 03:38:08;;;;;;;23.53;13.47;;;5.40;72.50;;;;;;5030232;28;20056;-74
2021/04/09 03:40:34;;;;;;;22.77;14.13;;;5.50;72.40;;;;;;5014792;28;20041;-75
2021/04/09 03:42:59;;;;;;;28.20;16.17;;;5.50;72.70;;;;;;5030711;28;20111;-76
2021/04/09 03:45:25;;;;;;;29.13;17.07;;;5.60;72.90;;;;;;5014239;28;20037;-74
2021/04/09 03:47:51;;;;;;;25.60;14.97;;;5.70;73.20;;;;;;5029905;28;20029;-74
2021/04/09 03:50:16;;;;;;;21.83;13.13;;;5.80;73.00;;;;;;5031187;28;20079;-74
2021/04/09 03:52:42;;;;;;;21.90;13.00;;;5.80;72.40;;;;;;5032177;28;20112;-73
2021/04/09 03:55:12;;;;;;;21.80;13.13;;;5.80;72.50;;;;;;5031813;28;20061;-74
2021/04/09 03:57:38;;;;;;;21.47;12.87;;;5.80;72.60;;;;;;5032055;28;20037;-74
2021/04/09 04:00:05;;;;;;;19.80;10.53;;;5.80;72.40;;;;;;5031093;28;20044;-73
2021/04/09 04:02:31;;;;;;;22.07;13.27;;;5.80;72.00;;;;;;5030687;28;20068;-74
2021/04/09 04:04:56;;;;;;;23.57;14.50;;;5.80;72.40;;;;;;5013719;28;20063;-74
2021/04/09 04:07:22;;;;;;;19.87;12.43;;;5.90;72.60;;;;;;5014086;28;20084;-74
2021/04/09 04:09:48;;;;;;;20.27;13.23;;;5.90;72.50;;;;;;5030137;28;20444;-75
2021/04/09 04:12:14;;;;;;;20.40;12.77;;;5.90;72.80;;;;;;5030186;28;20029;-73
2021/04/09 04:14:39;;;;;;;17.87;11.33;;;6.00;72.80;;;;;;5013868;28;20029;-73
2021/04/09 04:17:05;;;;;;;16.67;10.57;;;6.00;72.20;;;;;;5012913;28;20037;-74
2021/04/09 04:19:30;;;;;;;21.23;11.77;;;6.00;71.60;;;;;;5030128;28;20061;-73
2021/04/09 04:21:56;;;;;;;20.40;12.07;;;6.00;72.50;;;;;;5013185;28;20037;-73
2021/04/09 04:24:24;;;;;;;22.00;12.27;;;6.10;72.60;;;;;;5030412;28;20029;-74
2021/04/09 04:26:52;;;;;;;19.00;10.87;;;6.10;72.90;;;;;;5030993;28;20072;-76
2021/04/09 04:29:18;;;;;;;18.53;10.40;;;6.20;72.20;;;;;;5030058;28;20080;-73
2021/04/09 04:31:43;;;;;;;17.50;10.57;;;6.10;71.70;;;;;;5029888;28;20431;-74
2021/04/09 04:34:09;;;;;;;15.90;10.13;;;6.10;72.60;;;;;;5013199;28;20610;-74
2021/04/09 04:36:35;;;;;;;15.83;9.70;;;6.30;73.10;;;;;;5031281;28;20380;-73
2021/04/09 04:39:00;;;;;;;16.70;9.47;;;6.30;72.80;;;;;;5012577;28;20393;-74
2021/04/09 04:41:26;;;;;;;15.13;9.30;;;6.30;72.10;;;;;;5029830;28;20060;-74
2021/04/09 04:43:52;;;;;;;14.63;9.23;;;6.20;72.10;;;;;;5029952;28;20059;-74
2021/04/09 04:46:18;;;;;;;16.07;8.43;;;6.20;72.40;;;;;;5029235;28;20076;-74
2021/04/09 04:48:44;;;;;;;14.97;8.60;;;6.30;71.50;;;;;;5029911;28;20037;-74
2021/04/09 04:51:09;;;;;;;16.27;8.80;;;6.20;71.90;;;;;;5030471;28;20044;-74
2021/04/09 04:53:35;;;;;;;16.30;8.20;;;6.30;72.20;;;;;;5031163;28;20511;-74
2021/04/09 04:56:01;;;;;;;14.10;7.93;;;6.20;71.40;;;;;;5030130;28;20029;-75
2021/04/09 04:58:26;;;;;;;12.70;8.03;;;6.20;71.40;;;;;;5012816;28;20202;-75
2021/04/09 05:00:52;;;;;;;14.27;8.20;;;6.30;72.10;;;;;;5029423;28;20440;-75
2021/04/09 05:03:18;;;;;;;12.50;8.00;;;6.40;72.00;;;;;;5029497;28;20377;-75
2021/04/09 05:05:43;;;;;;;13.30;7.87;;;6.40;71.70;;;;;;5031406;28;20026;-74
2021/04/09 05:08:09;;;;;;;13.97;8.40;;;6.40;71.50;;;;;;5028340;28;20477;-76
2021/04/09 05:10:35;;;;;;;12.93;7.60;;;6.30;71.90;;;;;;5029914;28;20581;-75
2021/04/09 05:13:00;;;;;;;15.13;7.90;;;6.30;71.00;;;;;;5028673;28;20253;-75
2021/04/09 05:15:26;;;;;;;11.70;7.30;;;6.40;71.90;;;;;;5029363;28;20025;-75
2021/04/09 05:17:51;;;;;;;13.00;8.23;;;6.50;71.70;;;;;;5012760;28;20026;-75
2021/04/09 05:20:17;;;;;;;12.67;7.17;;;6.50;70.80;;;;;;5012446;28;20029;-75
2021/04/09 05:22:43;;;;;;;12.10;7.40;;;6.50;71.50;;;;;;5029699;28;20034;-75
2021/04/09 05:25:09;;;;;;;11.67;7.23;;;6.60;71.70;;;;;;5030534;28;20040;-75
2021/04/09 05:27:35;;;;;;;13.43;7.97;;;6.70;71.40;;;;;;5013358;28;20477;-75
2021/04/09 05:30:01;;;;;;;12.43;7.07;;;6.80;70.80;;;;;;5028475;28;20037;-75
2021/04/09 05:32:26;;;;;;;12.33;7.40;;;6.90;70.70;;;;;;5029855;28;20029;-76
2021/04/09 05:34:52;;;;;;;13.37;7.60;;;6.90;69.40;;;;;;5029628;28;20040;-75
2021/04/09 05:37:18;;;;;;;12.27;6.70;;;6.90;69.30;;;;;;5017586;28;20649;-75
2021/04/09 05:39:44;;;;;;;12.37;7.10;;;6.90;69.50;;;;;;5038398;28;20599;-75
2021/04/09 05:42:09;;;;;;;9.80;6.73;;;7.10;69.50;;;;;;5031527;28;20037;-76
2021/04/09 05:44:36;;;;;;;11.40;6.50;;;7.30;69.20;;;;;;5031313;28;20056;-75
2021/04/09 05:47:03;;;;;;;11.33;5.93;;;7.50;69.00;;;;;;5031383;28;20033;-77
2021/04/09 05:49:29;;;;;;;11.77;6.80;;;7.70;68.40;;;;;;5029768;28;20132;-75
2021/04/09 05:51:55;;;;;;;10.30;6.60;;;7.80;66.90;;;;;;5030523;28;20112;-74
2021/04/09 05:54:21;;;;;;;10.17;6.97;;;8.00;67.10;;;;;;5028445;28;20350;-74
2021/04/09 05:56:46;;;;;;;8.50;6.20;;;8.10;66.50;;;;;;5028992;28;20030;-75
2021/04/09 05:59:12;;;;;;;8.73;5.60;;;8.30;66.40;;;;;;5027790;28;20064;-75
2021/04/09 06:01:38;;;;;;;10.47;6.37;;;8.60;66.10;;;;;;5028233;28;20091;-75
2021/04/09 06:04:04;;;;;;;10.27;6.37;;;8.90;65.30;;;;;;5029188;28;20025;-75
2021/04/09 06:06:29;;;;;;;10.77;6.57;;;9.20;64.20;;;;;;5028812;28;20079;-74
2021/04/09 06:08:55;;;;;;;10.93;6.73;;;9.20;63.70;;;;;;5012102;28;20061;-75
2021/04/09 06:11:21;;;;;;;9.17;5.70;;;9.50;63.00;;;;;;5027868;28;20103;-76
2021/04/09 06:13:46;;;;;;;10.30;6.10;;;9.90;62.70;;;;;;5028494;28;20068;-76
2021/04/09 06:16:12;;;;;;;8.10;5.13;;;10.30;61.50;;;;;;5028086;28;20029;-76
2021/04/09 06:18:38;;;;;;;9.97;5.47;;;10.50;60.60;;;;;;5028953;28;20032;-75
2021/04/09 06:21:04;;;;;;;9.63;5.57;;;10.70;59.90;;;;;;5028159;28;20515;-76
2021/04/09 06:23:29;;;;;;;9.07;5.50;;;10.80;59.20;;;;;;5035473;28;20489;-75
2021/04/09 06:25:55;;;;;;;10.30;5.93;;;11.00;57.40;;;;;;5045519;28;20098;-75
2021/04/09 06:28:21;;;;;;;8.83;4.93;;;11.20;56.90;;;;;;5032662;28;20547;-75
2021/04/09 06:30:46;;;;;;;8.13;5.17;;;11.50;57.60;;;;;;5029743;28;20030;-75
2021/04/09 06:33:12;;;;;;;7.93;5.50;;;11.70;57.20;;;;;;5028691;28;20041;-74
2021/04/09 06:35:37;;;;;;;7.00;5.10;;;11.80;55.90;;;;;;5028139;28;20139;-75
2021/04/09 06:38:03;;;;;;;6.87;4.77;;;11.80;54.80;;;;;;5011798;28;20413;-76
2021/04/09 06:40:29;;;;;;;12.47;5.50;;;11.80;56.00;;;;;;5011528;28;20493;-75
2021/04/09 06:42:56;;;;;;;8.33;5.13;;;12.00;55.10;;;;;;5027795;28;20386;-75
2021/04/09 06:45:23;;;;;;;8.67;5.30;;;12.20;54.50;;;;;;5027883;28;20026;-75
2021/04/09 06:47:49;;;;;;;8.80;5.27;;;12.50;53.90;;;;;;5012050;28;20030;-75
2021/04/09 06:50:15;;;;;;;8.20;5.37;;;12.70;53.30;;;;;;5030236;28;20539;-75
2021/04/09 06:52:42;;;;;;;9.63;5.43;;;12.80;53.20;;;;;;5028571;28;20034;-75
2021/04/09 06:55:09;;;;;;;8.67;5.60;;;13.00;52.00;;;;;;5012155;28;20068;-77
2021/04/09 06:57:38;;;;;;;10.47;5.50;;;13.10;51.10;;;;;;5029461;28;20021;-76
2021/04/09 07:00:10;;;;;;;8.47;5.30;;;13.20;50.10;;;;;;5042743;28;20044;-76
2021/04/09 07:02:36;;;;;;;9.20;6.10;;;13.20;50.10;;;;;;5041639;28;20470;-76
2021/04/09 07:05:03;;;;;;;7.07;4.90;;;13.10;49.80;;;;;;5009610;28;20125;-77
2021/04/09 07:07:28;;;;;;;11.43;5.90;;;13.30;51.10;;;;;;5024808;28;20234;-75
2021/04/09 07:09:54;;;;;;;9.57;5.43;;;13.60;50.30;;;;;;5027462;28;20477;-75
2021/04/09 07:12:26;;;;;;;8.13;5.00;;;13.90;49.10;;;;;;5008824;28;20095;-75
2021/04/09 07:14:52;;;;;;;7.60;5.40;;;14.20;48.10;;;;;;5027406;28;20110;-76
2021/04/09 07:17:33;;;;;;;9.40;5.28;;;14.40;48.20;;;;;;5026719;28;20111;-76
2021/04/09 07:20:23;;;;;;;8.20;5.65;;;14.60;47.10;;;;;;5025263;28;20030;-76
2021/04/09 07:22:50;;;;;;;8.90;5.68;;;14.80;47.00;;;;;;5025328;28;20033;-76
2021/04/09 07:25:28;;;;;;;7.72;5.43;;;14.80;46.00;;;;;;5025505;28;20033;-76
2021/04/09 07:28:12;;;;;;;8.63;5.90;;;14.70;47.20;;;;;;5026805;28;20025;-75
2021/04/09 07:30:40;;;;;;;9.40;5.32;;;14.70;45.50;;;;;;5025114;28;20064;-76
2021/04/09 07:33:10;;;;;;;8.20;5.38;;;14.70;46.90;;;;;;5025028;28;20056;-74
2021/04/09 07:35:53;;;;;;;10.88;6.25;;;14.70;46.80;;;;;;5057648;28;20057;-75
2021/04/09 07:38:20;;;;;;;9.98;5.50;;;15.00;46.90;;;;;;5025841;28;20036;-75
2021/04/09 07:40:58;;;;;;;7.88;5.70;;;15.30;46.30;;;;;;5032302;28;20030;-74
2021/04/09 07:43:25;;;;;;;7.45;5.10;;;15.80;45.30;;;;;;5031039;28;20025;-74
2021/04/09 07:45:58;;;;;;;10.35;6.07;;;16.10;45.10;;;;;;5031988;28;20038;-75
2021/04/09 07:48:30;;;;;;;9.07;5.40;;;16.30;44.10;;;;;;4995316;28;20036;-74
2021/04/09 07:50:56;;;;;;;8.05;5.40;;;16.40;43.70;;;;;;5012740;28;20137;-74
2021/04/09 07:53:31;;;;;;;10.13;5.10;;;16.60;43.80;;;;;;5026380;28;20030;-75
2021/04/09 07:56:11;;;;;;;8.63;5.55;;;16.80;43.10;;;;;;5047629;28;20061;-76
2021/04/09 07:58:39;;;;;;;7.75;4.80;;;17.30;42.20;;;;;;5031870;28;20025;-76
2021/04/09 08:01:16;;;;;;;8.38;4.82;;;17.50;42.10;;;;;;5032555;28;20116;-76
2021/04/09 08:03:42;;;;;;;9.93;5.25;;;17.80;41.30;;;;;;5029825;28;20470;-76
2021/04/09 08:06:14;;;;;;;8.88;5.65;;;18.00;40.10;;;;;;5030831;28;20036;-76
2021/04/09 08:09:00;;;;;;;8.77;5.53;;;18.00;40.80;;;;;;5031600;28;20072;-76
2021/04/09 08:11:30;;;;;;;7.63;4.57;;;17.70;39.60;;;;;;5029320;28;20040;-76
2021/04/09 08:14:21;;;;;;;10.45;4.95;;;17.30;41.20;;;;;;5030410;28;20038;-77
2021/04/09 08:16:49;;;;;;;9.48;5.70;;;17.10;42.30;;;;;;5022401;28;20077;-76
2021/04/09 08:19:18;;;;;;;7.22;5.40;;;17.10;42.40;;;;;;5013774;28;20037;-77
2021/04/09 08:21:52;;;;;;;10.15;5.97;;;16.90;42.80;;;;;;5030164;28;20038;-75
2021/04/09 08:24:24;;;;;;;9.02;4.97;;;16.70;43.20;;;;;;5029755;28;20056;-76
2021/04/09 08:26:50;;;;;;;8.63;5.18;;;16.60;43.70;;;;;;5031008;28;20025;-76
2021/04/09 08:29:17;;;;;;;8.75;5.40;;;16.40;43.40;;;;;;5029096;28;20123;-76
2021/04/09 08:31:43;;;;;;;8.52;5.85;;;16.40;42.90;;;;;;5045526;28;20504;-76
2021/04/09 08:34:11;;;;;;;10.13;5.80;;;16.50;43.50;;;;;;5029973;28;20025;-76
2021/04/09 08:36:38;;;;;;;8.98;5.80;;;16.80;42.40;;;;;;5029231;28;20026;-76
2021/04/09 08:39:05;;;;;;;9.60;5.80;;;16.90;42.30;;;;;;5030627;28;20143;-76
2021/04/09 08:41:32;;;;;;;8.85;6.07;;;16.90;41.90;;;;;;5062021;28;20045;-77
2021/04/09 08:43:58;;;;;;;8.80;5.95;;;17.10;42.10;;;;;;5028516;28;20104;-77
2021/04/09 08:46:24;;;;;;;10.18;6.15;;;17.40;42.00;;;;;;5012159;28;20025;-77
2021/04/09 08:48:52;;;;;;;10.45;6.15;;;17.30;41.10;;;;;;5031295;28;20092;-76
2021/04/09 08:51:22;;;;;;;9.57;6.72;;;17.20;41.30;;;;;;5029502;28;20037;-77
2021/04/09 08:53:48;;;;;;;10.13;6.28;;;17.50;41.20;;;;;;5029833;28;20466;-75
2021/04/09 08:56:14;;;;;;;10.00;6.80;;;17.80;41.20;;;;;;5029475;28;20043;-75
2021/04/09 08:58:45;;;;;;;9.10;6.30;;;18.10;40.10;;;;;;5030103;28;20033;-76
2021/04/09 09:01:13;;;;;;;10.40;6.95;;;18.30;39.70;;;;;;5030661;28;20494;-76
2021/04/09 09:03:40;;;;;;;8.15;5.57;;;18.60;39.80;;;;;;5028560;28;20596;-76
2021/04/09 09:06:07;;;;;;;10.10;6.50;;;18.90;37.30;;;;;;5030956;28;20059;-76
2021/04/09 09:08:48;;;;;;;9.77;7.80;;;19.30;37.70;;;;;;5028084;28;20060;-78
2021/04/09 09:11:34;;;;;;;7.97;5.78;;;19.70;37.80;;;;;;5030330;28;20095;-78
2021/04/09 09:14:00;;;;;;;10.18;7.15;;;19.90;35.90;;;;;;5052918;28;20112;-77
2021/04/09 09:16:39;;;;;;;10.05;6.13;;;19.90;36.80;;;;;;5028191;28;20612;-77
2021/04/09 09:19:05;;;;;;;11.75;9.40;;;20.30;36.20;;;;;;5029403;28;20029;-77
2021/04/09 09:21:35;;;;;;;8.27;4.95;;;20.50;36.70;;;;;;5036854;28;20048;-76
2021/04/09 09:24:15;;;;;;;8.02;6.82;;;20.90;34.40;;;;;;5019500;28;20133;-77
2021/04/09 09:26:43;;;;;;;8.23;5.05;;;21.10;35.40;;;;;;5026557;28;20021;-76
2021/04/09 09:29:28;;;;;;;9.70;7.10;;;21.50;34.00;;;;;;5029191;28;20057;-77
2021/04/09 09:32:06;;;;;;;9.77;6.93;;;21.70;34.60;;;;;;5028198;28;20033;-77
2021/04/09 09:34:38;;;;;;;7.20;5.50;;;21.60;34.60;;;;;;5029865;28;20013;-76
2021/04/09 09:37:17;;;;;;;9.98;5.70;;;21.60;33.90;;;;;;5030724;28;20043;-77
2021/04/09 09:39:52;;;;;;;9.32;5.13;;;21.80;33.40;;;;;;5028353;28;20034;-76
2021/04/09 09:42:21;;;;;;;7.53;5.20;;;22.00;33.20;;;;;;5029002;28;20040;-76
2021/04/09 09:44:49;;;;;;;10.68;6.57;;;22.20;32.80;;;;;;5027937;28;20025;-78
2021/04/09 09:47:17;;;;;;;9.88;6.70;;;22.30;33.10;;;;;;5028892;28;20029;-77
2021/04/09 09:50:04;;;;;;;8.32;5.90;;;22.70;33.40;;;;;;5027733;28;20045;-77
2021/04/09 09:52:48;;;;;;;8.35;6.10;;;23.10;32.50;;;;;;5027945;28;20033;-78
2021/04/09 09:55:25;;;;;;;6.45;4.85;;;23.00;32.70;;;;;;5028861;28;20061;-77
2021/04/09 09:57:53;;;;;;;8.63;5.82;;;23.00;32.80;;;;;;5027793;28;20025;-77
2021/04/09 10:00:26;;;;;;;8.70;5.60;;;22.80;32.00;;;;;;5012196;28;20073;-77
2021/04/09 10:03:29;;;;;;;6.55;5.40;;;22.70;32.20;;;;;;5028393;28;20053;-77
2021/04/09 10:05:59;;;;;;;10.57;6.78;;;22.70;32.10;;;;;;5028253;28;20140;-77
2021/04/09 10:08:27;;;;;;;9.32;6.32;;;22.60;32.80;;;;;;5029739;28;20081;-77
2021/04/09 10:11:02;;;;;;;7.90;5.57;;;22.90;32.50;;;;;;5028556;28;20030;-77
2021/04/09 10:13:36;;;;;;;7.15;5.57;;;22.80;32.50;;;;;;5028239;28;20025;-76
2021/04/09 10:16:14;;;;;;;11.52;8.20;;;22.90;32.60;;;;;;5061588;28;20037;-77
2021/04/09 10:18:42;;;;;;;9.07;6.40;;;23.00;33.60;;;;;;5028019;28;20492;-76
2021/04/09 10:21:27;;;;;;;11.30;7.72;;;23.10;32.50;;;;;;5028356;28;20030;-77
2021/04/09 10:24:16;;;;;;;19.77;7.95;;;23.10;32.40;;;;;;5028020;28;20044;-77
2021/04/09 10:26:58;;;;;;;12.18;5.28;;;23.10;32.30;;;;;;5064882;28;20018;-77
2021/04/09 10:29:27;;;;;;;11.40;6.72;;;22.70;31.90;;;;;;5032649;28;20065;-76
2021/04/09 10:31:55;;;;;;;13.00;6.88;;;22.20;33.00;;;;;;5058633;28;20026;-77
2021/04/09 10:34:23;;;;;;;12.00;7.50;;;21.90;33.20;;;;;;5032539;28;20030;-77
2021/04/09 10:36:49;;;;;;;10.10;6.10;;;22.10;33.50;;;;;;5032549;28;20022;-76
2021/04/09 10:39:17;;;;;;;10.77;6.13;;;22.20;33.70;;;;;;5066038;28;20022;-77
2021/04/09 10:41:49;;;;;;;9.85;6.40;;;22.00;33.40;;;;;;5032873;28;20041;-76
2021/04/09 10:44:24;;;;;;;7.35;5.45;;;22.00;33.50;;;;;;5032222;28;20448;-78
2021/04/09 10:46:57;;;;;;;10.00;6.28;;;22.10;33.50;;;;;;5064452;28;20037;-77
2021/04/09 10:49:25;;;;;;;5.65;4.05;;;22.20;33.20;;;;;;5033322;28;20033;-77
2021/04/09 10:52:05;;;;;;;6.47;4.35;;;21.80;33.00;;;;;;5032713;28;20025;-77
2021/04/09 10:54:34;;;;;;;11.93;7.03;;;21.20;33.00;;;;;;5033170;28;20040;-77
2021/04/09 10:57:06;;;;;;;9.43;5.43;;;21.20;34.60;;;;;;5032333;28;20056;-77
2021/04/09 10:59:34;;;;;;;7.82;5.78;;;21.30;34.70;;;;;;5065342;28;20397;-77
2021/04/09 11:02:01;;;;;;;5.80;4.38;;;21.20;34.80;;;;;;5032369;28;20145;-77
2021/04/09 11:04:29;;;;;;;11.02;6.60;;;21.50;34.30;;;;;;5065482;28;20099;-77
2021/04/09 11:07:02;;;;;;;7.35;5.30;;;21.50;34.10;;;;;;5030898;28;20025;-75
2021/04/09 11:09:46;;;;;;;6.43;4.28;;;21.30;34.50;;;;;;5015684;28;20406;-76
2021/04/09 11:12:22;;;;;;;8.63;5.57;;;21.00;34.60;;;;;;5032902;28;20071;-76
2021/04/09 11:14:50;;;;;;;8.95;5.07;;;21.20;34.50;;;;;;5064496;28;20048;-76
2021/04/09 11:17:26;;;;;;;7.90;4.82;;;21.00;34.60;;;;;;5064540;28;20037;-76
2021/04/09 11:19:57;;;;;;;11.77;7.15;;;20.90;34.40;;;;;;5032250;28;20029;-75
2021/04/09 11:22:27;;;;;;;6.63;4.65;;;20.90;35.00;;;;;;5031868;28;20044;-76
2021/04/09 11:25:05;;;;;;;7.07;4.40;;;20.80;35.10;;;;;;5032023;28;20512;-77
2021/04/09 11:27:34;;;;;;;7.30;5.03;;;20.50;35.00;;;;;;5032963;28;20022;-76
2021/04/09 11:30:29;;;;;;;8.80;5.38;;;20.20;35.40;;;;;;5032058;28;20021;-76
2021/04/09 11:32:54;;;;;;;10.75;6.88;;;20.00;36.20;;;;;;5028957;28;20051;-75
2021/04/09 11:35:22;;;;;;;10.07;6.50;;;19.70;36.70;;;;;;5031138;28;20792;-75
2021/04/09 11:37:50;;;;;;;6.13;4.90;;;19.70;37.00;;;;;;5063853;28;20022;-77
2021/04/09 11:40:31;;;;;;;12.10;6.43;;;19.70;36.70;;;;;;5032666;28;20037;-75
2021/04/09 11:42:57;;;;;;;7.97;5.00;;;19.70;37.60;;;;;;5031724;28;20481;-75
2021/04/09 11:45:23;;;;;;;9.50;6.15;;;19.60;36.80;;;;;;5032344;28;20029;-77
2021/04/09 11:47:48;;;;;;;8.77;5.55;;;19.50;37.10;;;;;;5013646;28;20025;-77
2021/04/09 11:50:22;;;;;;;11.98;4.80;;;19.40;36.70;;;;;;5014991;28;20854;-77
2021/04/09 11:53:03;;;;;;;9.10;5.30;;;19.40;36.90;;;;;;5031618;28;20096;-77
2021/04/09 11:55:35;;;;;;;10.20;5.80;;;19.30;37.00;;;;;;5064136;28;20022;-76
2021/04/09 11:58:01;;;;;;;6.85;4.93;;;19.10;37.20;;;;;;5063066;28;20112;-76
2021/04/09 12:00:35;;;;;;;6.43;4.78;;;18.90;37.10;;;;;;5032290;28;20467;-75
2021/04/09 12:03:04;;;;;;;11.30;7.07;;;18.50;37.70;;;;;;5062951;28;20056;-76
2021/04/09 12:05:34;;;;;;;8.02;5.32;;;18.50;38.50;;;;;;5063830;28;20387;-76
2021/04/09 12:08:01;;;;;;;6.22;5.03;;;18.50;38.30;;;;;;5030854;28;20406;-75
2021/04/09 12:10:28;;;;;;;9.32;4.85;;;18.40;38.30;;;;;;5013817;28;20432;-76
2021/04/09 12:12:54;;;;;;;8.48;5.57;;;18.30;38.20;;;;;;5013521;28;20434;-76
2021/04/09 12:15:22;;;;;;;5.65;3.50;;;18.10;38.60;;;;;;5047292;28;20359;-76
2021/04/09 12:17:48;;;;;;;7.10;4.07;;;18.10;38.40;;;;;;5031286;28;20025;-77
2021/04/09 12:20:19;;;;;;;7.50;3.92;;;17.90;38.70;;;;;;5013819;28;20095;-76
2021/04/09 12:22:46;;;;;;;8.35;4.75;;;17.80;38.50;;;;;;5063460;28;20096;-76
2021/04/09 12:25:14;;;;;;;5.60;3.78;;;17.60;38.60;;;;;;5030934;28;20108;-76
2021/04/09 12:27:40;;;;;;;10.27;5.07;;;17.50;38.90;;;;;;5031316;28;20034;-77
2021/04/09 12:30:08;;;;;;;9.93;4.45;;;17.50;39.40;;;;;;5030785;28;20029;-77
2021/04/09 12:32:35;;;;;;;9.93;5.50;;;17.50;39.40;;;;;;5031337;28;20033;-77
2021/04/09 12:35:01;;;;;;;8.57;4.95;;;17.60;39.60;;;;;;5045887;28;20045;-77
2021/04/09 12:37:27;;;;;;;9.00;4.63;;;17.50;39.30;;;;;;5062446;28;20026;-76
2021/04/09 12:39:53;;;;;;;9.15;5.07;;;17.40;39.20;;;;;;5028844;28;20299;-76
2021/04/09 12:42:19;;;;;;;7.85;4.00;;;17.50;39.80;;;;;;5046353;28;20116;-75
2021/04/09 12:44:45;;;;;;;9.45;5.05;;;17.70;39.60;;;;;;5063477;28;20032;-75
2021/04/09 12:47:11;;;;;;;6.90;4.20;;;17.70;39.80;;;;;;5062026;28;20052;-75
2021/04/09 12:49:37;;;;;;;11.02;5.78;;;17.70;39.30;;;;;;5031345;28;20358;-78
2021/04/09 12:52:04;;;;;;;8.77;4.07;;;17.60;39.60;;;;;;5012533;28;20482;-74
2021/04/09 12:54:31;;;;;;;9.50;5.05;;;17.60;39.70;;;;;;5013706;28;20080;-75
2021/04/09 12:56:57;;;;;;;7.45;4.07;;;17.70;40.00;;;;;;5061949;28;20480;-76